createdAt,value
2022-10-18T00:01:05.880Z,0.90
2022-10-18T00:03:33.920Z,1.38
2022-10-18T00:06:01.945Z,1.63
2022-10-18T00:08:32.448Z,1.20
2022-10-18T00:10:59.747Z,1.35
2022-10-18T00:13:27.164Z,0.88
2022-10-18T00:15:58.411Z,1.63
2022-10-18T00:18:26.219Z,1.27
2022-10-18T00:21:06.481Z,0.73
2022-10-18T00:23:35.425Z,1.25
2022-10-18T00:26:06.966Z,2.67
2022-10-18T00:31:12.680Z,3.33
2022-10-18T00:33:40.477Z,2.05
2022-10-18T00:36:07.918Z,2.45
2022-10-18T00:38:35.618Z,1.80
2022-10-18T00:41:07.314Z,1.02
2022-10-18T00:43:52.462Z,2.22
2022-10-18T00:46:19.982Z,0.68
2022-10-18T00:48:48.036Z,0.93
2022-10-18T00:51:18.367Z,2.08
2022-10-18T00:53:46.323Z,2.60
2022-10-18T00:56:20.378Z,1.60
2022-10-18T00:58:51.863Z,0.73
2022-10-18T01:01:20.617Z,0.60
2022-10-18T01:03:51.254Z,0.70
2022-10-18T01:06:18.559Z,0.90
2022-10-18T01:09:04.255Z,1.85
2022-10-18T01:11:51.037Z,1.08
2022-10-18T01:14:37.907Z,1.45
2022-10-18T01:17:27.239Z,1.63
2022-10-18T01:20:18.681Z,1.38
2022-10-18T01:22:56.806Z,0.40
2022-10-18T01:25:29.824Z,1.45
2022-10-18T01:28:09.302Z,0.43
2022-10-18T01:30:38.706Z,0.88
2022-10-18T01:33:29.193Z,1.73
2022-10-18T01:36:21.281Z,1.35
2022-10-18T01:38:53.114Z,0.57
2022-10-18T01:41:27.068Z,1.40
2022-10-18T01:43:59.663Z,0.90
2022-10-18T01:46:29.125Z,1.65
2022-10-18T01:48:57.037Z,2.45
2022-10-18T01:51:31.902Z,1.92
2022-10-18T01:53:59.111Z,2.20
2022-10-18T01:56:51.967Z,1.17
2022-10-18T01:59:53.470Z,0.68
2022-10-18T02:02:26.991Z,0.82
2022-10-18T02:05:21.090Z,1.25
2022-10-18T02:08:05.617Z,1.75
2022-10-18T02:10:51.098Z,1.27
2022-10-18T02:13:21.547Z,1.60
2022-10-18T02:15:54.744Z,1.15
2022-10-18T02:18:29.050Z,2.15
2022-10-18T02:21:00.129Z,1.85
2022-10-18T02:23:27.754Z,1.70
2022-10-18T02:25:55.405Z,3.10
2022-10-18T02:31:15.737Z,2.28
2022-10-18T02:34:06.362Z,2.20
2022-10-18T02:36:40.565Z,0.45
2022-10-18T02:39:18.337Z,0.60
2022-10-18T02:41:45.811Z,3.70
2022-10-18T02:44:13.201Z,2.05
2022-10-18T02:46:40.700Z,2.28
2022-10-18T02:49:10.475Z,0.93
2022-10-18T02:51:37.784Z,1.75
2022-10-18T02:54:05.492Z,1.13
2022-10-18T02:56:33.001Z,1.05
2022-10-18T02:59:00.590Z,1.90
2022-10-18T03:01:28.032Z,0.98
2022-10-18T03:03:55.438Z,1.02
2022-10-18T03:06:22.837Z,0.68
2022-10-18T03:08:50.310Z,1.23
2022-10-18T03:11:17.635Z,0.40
2022-10-18T03:13:45.347Z,1.10
2022-10-18T03:16:12.827Z,1.40
2022-10-18T03:18:40.145Z,0.73
2022-10-18T03:21:08.114Z,0.70
2022-10-18T03:23:35.961Z,0.63
2022-10-18T03:26:04.331Z,1.27
2022-10-18T03:28:31.709Z,2.00
2022-10-18T03:31:03.591Z,1.63
2022-10-18T03:33:32.631Z,0.95
2022-10-18T03:36:00.065Z,0.38
2022-10-18T03:38:27.398Z,1.42
2022-10-18T03:40:54.749Z,0.63
2022-10-18T03:43:22.408Z,1.52
2022-10-18T03:45:49.869Z,0.60
2022-10-18T03:48:17.194Z,1.95
2022-10-18T03:50:44.437Z,1.00
2022-10-18T03:53:20.432Z,1.77
2022-10-18T03:55:54.837Z,0.50
2022-10-18T03:58:22.573Z,1.63
2022-10-18T04:00:57.504Z,1.60
2022-10-18T04:03:25.828Z,0.65
2022-10-18T04:05:56.414Z,0.85
2022-10-18T04:08:24.686Z,0.55
2022-10-18T04:10:52.608Z,1.67
2022-10-18T04:13:23.795Z,2.22
2022-10-18T04:18:19.862Z,1.55
2022-10-18T04:20:47.611Z,1.63
2022-10-18T04:23:16.081Z,1.25
2022-10-18T04:25:46.536Z,0.80
2022-10-18T04:28:13.865Z,2.42
2022-10-18T04:30:50.084Z,0.75
2022-10-18T04:33:17.838Z,1.23
2022-10-18T04:35:46.494Z,2.47
2022-10-18T04:38:13.893Z,1.75
2022-10-18T04:40:44.615Z,0.93
2022-10-18T04:43:14.727Z,1.98
2022-10-18T04:45:47.582Z,1.52
2022-10-18T04:48:16.288Z,0.80
2022-10-18T04:50:43.774Z,1.48
2022-10-18T04:53:11.503Z,1.40
2022-10-18T04:55:59.084Z,2.80
2022-10-18T04:58:26.893Z,1.27
2022-10-18T05:00:57.459Z,0.70
2022-10-18T05:03:30.869Z,2.53
2022-10-18T05:06:08.840Z,1.08
2022-10-18T05:08:44.130Z,1.80
2022-10-18T05:11:14.403Z,2.92
2022-10-18T05:13:41.642Z,0.82
2022-10-18T05:16:08.998Z,0.90
2022-10-18T05:18:36.351Z,1.27
2022-10-18T05:21:06.436Z,1.88
2022-10-18T05:23:36.891Z,1.13
2022-10-18T05:26:06.622Z,0.90
2022-10-18T05:28:40.189Z,1.52
2022-10-18T05:31:11.282Z,2.15
2022-10-18T05:33:42.066Z,1.33
2022-10-18T05:36:10.446Z,1.13
2022-10-18T05:38:42.337Z,2.60
2022-10-18T05:41:11.347Z,1.02
2022-10-18T05:43:41.679Z,1.55
2022-10-18T05:46:15.554Z,1.65
2022-10-18T05:48:50.817Z,1.23
2022-10-18T05:51:20.045Z,1.30
2022-10-18T05:53:55.826Z,0.68
2022-10-18T05:56:28.395Z,0.63
2022-10-18T05:58:59.469Z,1.95
2022-10-18T06:01:33.473Z,1.25
2022-10-18T06:04:04.073Z,0.95
2022-10-18T06:06:31.855Z,1.90
2022-10-18T06:09:02.243Z,0.73
2022-10-18T06:11:30.661Z,1.92
2022-10-18T06:14:01.234Z,0.75
2022-10-18T06:16:34.961Z,1.33
2022-10-18T06:19:04.941Z,3.58
2022-10-18T06:21:34.803Z,1.95
2022-10-18T06:24:04.584Z,2.28
2022-10-18T06:26:31.748Z,1.17
2022-10-18T06:28:59.310Z,1.33
2022-10-18T06:31:27.084Z,1.23
2022-10-18T06:33:56.633Z,1.83
2022-10-18T06:36:24.235Z,1.58
2022-10-18T06:38:52.266Z,2.42
2022-10-18T06:41:22.584Z,1.70
2022-10-18T06:43:53.170Z,0.20
2022-10-18T06:46:23.662Z,0.87
2022-10-18T06:48:53.933Z,1.05
2022-10-18T06:51:21.617Z,1.65
2022-10-18T06:54:06.252Z,2.38
2022-10-18T06:56:40.025Z,0.68
2022-10-18T06:59:07.494Z,1.15
2022-10-18T07:01:34.920Z,1.13
2022-10-18T07:04:05.929Z,1.17
2022-10-18T07:06:36.771Z,1.92
2022-10-18T07:09:07.767Z,2.25
2022-10-18T07:11:38.958Z,0.43
2022-10-18T07:14:12.561Z,1.77
2022-10-18T07:16:42.713Z,2.33
2022-10-18T07:19:16.759Z,1.08
2022-10-18T07:21:44.483Z,0.63
2022-10-18T07:24:15.018Z,0.85
2022-10-18T07:26:45.550Z,1.33
2022-10-18T07:29:19.575Z,1.63
2022-10-18T07:31:47.419Z,0.90
2022-10-18T07:34:18.337Z,2.72
2022-10-18T07:36:49.543Z,0.80
2022-10-18T07:41:44.976Z,1.00
2022-10-18T07:44:17.715Z,0.88
2022-10-18T07:46:45.001Z,1.25
2022-10-18T07:49:12.745Z,0.80
2022-10-18T07:51:45.628Z,1.13
2022-10-18T07:54:16.050Z,1.35
2022-10-18T07:56:44.342Z,1.10
2022-10-18T07:59:16.048Z,1.05
2022-10-18T08:01:49.296Z,2.20
2022-10-18T08:04:16.734Z,1.30
2022-10-18T08:06:48.833Z,1.08
2022-10-18T08:09:25.296Z,1.60
2022-10-18T08:11:55.369Z,0.95
2022-10-18T08:14:25.967Z,0.88
2022-10-18T08:16:53.931Z,1.23
2022-10-18T08:19:29.153Z,2.03
2022-10-18T08:21:56.420Z,1.20
2022-10-18T08:24:24.317Z,0.82
2022-10-18T08:26:51.787Z,1.98
2022-10-18T08:29:23.313Z,1.50
2022-10-18T08:31:55.644Z,2.42
2022-10-18T08:34:26.362Z,1.10
2022-10-18T08:36:56.561Z,0.70
2022-10-18T08:39:24.173Z,1.00
2022-10-18T08:42:22.650Z,1.00
2022-10-18T08:44:52.390Z,1.80
2022-10-18T08:47:34.445Z,1.77
2022-10-18T08:50:12.310Z,1.38
2022-10-18T08:52:55.009Z,2.38
2022-10-18T08:55:27.612Z,1.77
2022-10-18T08:58:03.211Z,1.38
2022-10-18T09:00:37.924Z,0.88
2022-10-18T09:03:30.748Z,1.10
2022-10-18T09:06:13.394Z,1.55
2022-10-18T09:09:00.873Z,1.95
2022-10-18T09:11:46.554Z,1.40
2022-10-18T09:14:42.593Z,1.48
2022-10-18T09:17:47.909Z,0.82
2022-10-18T09:20:28.565Z,1.73
2022-10-18T09:23:12.098Z,2.67
2022-10-18T09:25:49.115Z,2.03
2022-10-18T09:29:00.171Z,1.52
2022-10-18T09:31:52.015Z,2.13
2022-10-18T09:34:29.119Z,1.88
2022-10-18T09:36:57.266Z,1.13
2022-10-18T09:39:51.981Z,1.50
2022-10-18T09:42:54.343Z,1.92
2022-10-18T09:48:07.177Z,0.80
2022-10-18T09:50:40.294Z,2.35
2022-10-18T09:53:10.488Z,2.38
2022-10-18T09:56:03.334Z,1.02
2022-10-18T09:58:41.784Z,0.32
2022-10-18T10:01:12.929Z,0.95
2022-10-18T10:03:41.220Z,0.98
2022-10-18T10:06:12.106Z,2.08
2022-10-18T10:08:56.846Z,0.40
2022-10-18T10:11:40.276Z,0.70
2022-10-18T10:14:11.648Z,0.63
2022-10-18T10:17:05.186Z,0.95
2022-10-18T10:19:37.138Z,1.20
2022-10-18T10:22:13.698Z,0.70
2022-10-18T10:24:48.774Z,1.15
2022-10-18T10:27:32.222Z,1.05
2022-10-18T10:30:06.814Z,0.77
2022-10-18T10:32:50.683Z,1.02
2022-10-18T10:35:54.572Z,1.48
2022-10-18T10:38:30.969Z,0.60
2022-10-18T10:41:02.565Z,0.65
2022-10-18T10:43:39.338Z,0.45
2022-10-18T10:46:13.903Z,0.70
2022-10-18T10:48:50.680Z,0.28
2022-10-18T10:51:35.575Z,1.00
2022-10-18T10:54:07.856Z,0.10
2022-10-18T10:57:05.413Z,1.02
2022-10-18T10:59:46.850Z,0.25
2022-10-18T11:02:21.498Z,0.80
2022-10-18T11:04:54.428Z,1.38
2022-10-18T11:07:35.690Z,0.57
2022-10-18T11:12:45.834Z,0.40
2022-10-18T11:15:23.460Z,0.75
2022-10-18T11:18:16.098Z,0.20
2022-10-18T11:20:49.193Z,0.55
2022-10-18T11:23:18.896Z,0.73
2022-10-18T11:25:55.802Z,0.68
2022-10-18T11:28:46.156Z,0.40
2022-10-18T11:31:46.146Z,0.27
2022-10-18T11:34:38.329Z,0.30
2022-10-18T11:37:29.186Z,0.38
2022-10-18T11:40:20.454Z,0.20
2022-10-18T11:43:00.529Z,0.35
2022-10-18T11:45:59.704Z,0.25
2022-10-18T11:48:33.800Z,0.85
2022-10-18T11:51:34.097Z,0.22
2022-10-18T11:54:20.284Z,0.83
2022-10-18T11:57:07.532Z,0.30
2022-10-18T11:59:51.958Z,0.57
2022-10-18T12:02:48.071Z,0.43
2022-10-18T12:05:23.635Z,0.32
2022-10-18T12:08:01.261Z,0.93
2022-10-18T12:10:45.742Z,0.35
2022-10-18T12:13:29.275Z,1.47
2022-10-18T12:15:56.830Z,0.77
2022-10-18T12:18:25.456Z,0.20
2022-10-18T12:20:58.240Z,0.20
2022-10-18T12:23:42.412Z,0.38
2022-10-18T12:26:11.358Z,0.65
2022-10-18T12:29:18.816Z,0.77
2022-10-18T12:31:50.139Z,0.52
2022-10-18T12:34:23.520Z,0.43
2022-10-18T12:37:00.042Z,0.57
2022-10-18T12:39:43.443Z,0.75
2022-10-18T12:42:30.864Z,0.30
2022-10-18T12:45:05.072Z,0.80
2022-10-18T12:47:33.302Z,0.45
2022-10-18T12:50:05.235Z,0.35
2022-10-18T12:52:32.814Z,0.40
2022-10-18T12:55:16.798Z,0.20
2022-10-18T12:57:57.189Z,1.02
2022-10-18T13:00:30.629Z,0.70
2022-10-18T13:03:09.795Z,0.38
2022-10-18T13:05:53.488Z,0.17
2022-10-18T13:08:27.785Z,0.70
2022-10-18T13:11:09.933Z,0.30
2022-10-18T13:14:01.825Z,0.38
2022-10-18T13:16:53.505Z,0.17
2022-10-18T13:20:24.049Z,0.20
2022-10-18T13:23:01.216Z,0.15
2022-10-18T13:25:45.815Z,0.73
2022-10-18T13:28:16.085Z,0.10
2022-10-18T13:30:52.162Z,0.20
2022-10-18T13:33:49.327Z,0.20
2022-10-18T13:36:24.212Z,0.75
2022-10-18T13:38:57.812Z,0.40
2022-10-18T13:41:51.567Z,0.80
2022-10-18T13:44:31.297Z,0.10
2022-10-18T13:47:02.495Z,0.60
2022-10-18T13:52:44.645Z,0.10
2022-10-18T13:55:34.532Z,0.65
2022-10-18T13:58:19.777Z,0.00
2022-10-18T14:01:02.431Z,0.32
2022-10-18T14:03:55.729Z,0.28
2022-10-18T14:06:21.263Z,0.28
2022-10-18T14:09:26.289Z,0.20
2022-10-18T14:12:26.694Z,0.50
2022-10-18T14:15:16.020Z,0.30
2022-10-18T14:17:53.435Z,0.28
2022-10-18T14:20:29.959Z,0.22
2022-10-18T14:23:16.172Z,0.47
2022-10-18T14:25:43.921Z,0.45
2022-10-18T14:28:19.703Z,0.30
2022-10-18T14:30:55.074Z,0.35
2022-10-18T14:33:32.461Z,0.50
2022-10-18T14:36:22.511Z,0.30
2022-10-18T14:38:58.895Z,0.17
2022-10-18T14:41:31.937Z,0.40
2022-10-18T14:44:24.881Z,0.55
2022-10-18T14:46:55.767Z,0.47
2022-10-18T14:49:23.187Z,0.68
2022-10-18T14:51:54.931Z,0.50
2022-10-18T14:54:27.606Z,0.38
2022-10-18T14:57:00.649Z,0.55
2022-10-18T14:59:31.583Z,0.10
2022-10-18T15:02:01.982Z,0.80
2022-10-18T15:04:29.794Z,0.77
2022-10-18T15:06:57.945Z,0.57
2022-10-18T15:09:26.324Z,0.45
2022-10-18T15:11:54.232Z,0.28
2022-10-18T15:14:22.033Z,1.15
2022-10-18T15:16:55.235Z,0.98
2022-10-18T15:19:30.038Z,1.10
2022-10-18T15:22:31.357Z,0.50
2022-10-18T15:25:22.683Z,0.50
2022-10-18T15:27:55.851Z,0.35
2022-10-18T15:30:25.314Z,0.52
2022-10-18T15:32:55.721Z,0.93
2022-10-18T15:35:26.367Z,0.63
2022-10-18T15:37:56.623Z,0.30
2022-10-18T15:40:23.835Z,0.55
2022-10-18T15:42:56.940Z,0.52
2022-10-18T15:45:24.099Z,0.10
2022-10-18T15:47:58.915Z,0.52
2022-10-18T15:50:38.397Z,1.20
2022-10-18T15:53:52.204Z,0.88
2022-10-18T15:56:35.877Z,0.13
2022-10-18T15:59:26.027Z,0.95
2022-10-18T16:01:56.542Z,0.70
2022-10-18T16:04:29.858Z,0.77
2022-10-18T16:06:58.260Z,0.45
2022-10-18T16:09:28.396Z,1.75
2022-10-18T16:11:57.308Z,0.80
2022-10-18T16:14:26.782Z,0.75
2022-10-18T16:19:36.875Z,0.47
2022-10-18T16:22:10.293Z,1.13
2022-10-18T16:24:40.933Z,1.25
2022-10-18T16:27:14.611Z,1.73
2022-10-18T16:29:47.588Z,1.35
2022-10-18T16:32:14.808Z,2.25
2022-10-18T16:34:47.955Z,2.53
2022-10-18T16:37:20.959Z,3.15
2022-10-18T16:39:51.056Z,2.05
2022-10-18T16:42:18.283Z,3.10
2022-10-18T16:44:45.726Z,2.67
2022-10-18T16:47:12.952Z,1.95
2022-10-18T16:49:40.258Z,3.03
2022-10-18T16:52:08.564Z,2.95
2022-10-18T16:54:37.931Z,2.33
2022-10-18T16:57:09.106Z,6.00
2022-10-18T16:59:40.070Z,3.60
2022-10-18T17:02:11.014Z,4.00
2022-10-18T17:04:44.680Z,4.60
2022-10-18T17:09:54.498Z,3.83
2022-10-18T17:12:28.032Z,2.83
2022-10-18T17:14:58.358Z,6.38
2022-10-18T17:17:26.410Z,3.25
2022-10-18T17:19:54.562Z,4.38
2022-10-18T17:22:25.224Z,4.68
2022-10-18T17:24:52.453Z,7.13
2022-10-18T17:27:34.110Z,5.00
2022-10-18T17:30:12.134Z,5.50
2022-10-18T17:32:40.003Z,4.90
2022-10-18T17:35:07.563Z,4.43
2022-10-18T17:37:35.174Z,3.92
2022-10-18T17:40:06.559Z,3.60
2022-10-18T17:42:34.684Z,2.35
2022-10-18T17:45:06.011Z,5.78
2022-10-18T17:47:33.532Z,4.20
2022-10-18T17:50:01.051Z,5.03
2022-10-18T17:52:29.633Z,4.57
2022-10-18T17:54:59.734Z,4.90
2022-10-18T17:57:26.985Z,6.53
2022-10-18T17:59:54.567Z,4.47
2022-10-18T18:02:22.202Z,5.50
2022-10-18T18:04:49.528Z,3.60
2022-10-18T18:07:16.876Z,5.50
2022-10-18T18:09:44.162Z,4.97
2022-10-18T18:12:11.498Z,3.83
2022-10-18T18:14:38.733Z,5.10
2022-10-18T18:17:05.899Z,6.18
2022-10-18T18:19:33.220Z,6.10
2022-10-18T18:22:00.746Z,4.97
2022-10-18T18:24:28.316Z,3.95
2022-10-18T18:26:55.886Z,6.05
2022-10-18T18:29:25.436Z,4.75
2022-10-18T18:31:53.331Z,5.38
2022-10-18T18:34:20.551Z,4.63
2022-10-18T18:36:48.678Z,3.08
2022-10-18T18:39:24.589Z,6.45
2022-10-18T18:41:52.800Z,5.95
2022-10-18T18:44:20.755Z,3.92
2022-10-18T18:46:48.895Z,3.83
2022-10-18T18:49:16.162Z,5.05
2022-10-18T18:51:43.459Z,5.05
2022-10-18T18:54:12.260Z,2.95
2022-10-18T18:56:41.086Z,4.22
2022-10-18T18:59:08.434Z,4.35
2022-10-18T19:01:40.191Z,2.40
2022-10-18T19:04:09.412Z,3.80
2022-10-18T19:06:39.977Z,0.60
2022-10-18T19:09:20.594Z,2.70
2022-10-18T19:11:50.627Z,2.63
2022-10-18T19:14:18.307Z,1.67
2022-10-18T19:16:48.167Z,1.67
2022-10-18T19:19:18.074Z,0.68
2022-10-18T19:21:46.420Z,1.45
2022-10-18T19:24:14.253Z,1.15
2022-10-18T19:26:45.739Z,1.15
2022-10-18T19:31:49.279Z,0.88
2022-10-18T19:34:19.647Z,1.27
2022-10-18T19:36:48.330Z,1.38
2022-10-18T19:39:25.959Z,2.88
2022-10-18T19:41:55.659Z,0.90
2022-10-18T19:44:24.448Z,2.03
2022-10-18T19:46:52.009Z,1.90
2022-10-18T19:49:22.059Z,0.50
2022-10-18T19:51:49.728Z,1.55
2022-10-18T19:54:17.057Z,2.60
2022-10-18T19:56:44.699Z,1.52
2022-10-18T19:59:15.746Z,1.42
2022-10-18T20:01:44.174Z,0.93
2022-10-18T20:04:12.754Z,0.82
2022-10-18T20:06:40.882Z,2.38
2022-10-18T20:09:14.694Z,1.10
2022-10-18T20:11:45.078Z,1.33
2022-10-18T20:14:12.457Z,2.38
2022-10-18T20:16:39.728Z,1.45
2022-10-18T20:19:08.402Z,0.80
2022-10-18T20:21:36.483Z,1.58
2022-10-18T20:24:05.232Z,1.58
2022-10-18T20:26:33.120Z,2.75
2022-10-18T20:29:02.961Z,1.45
2022-10-18T20:31:32.631Z,1.63
2022-10-18T20:34:02.548Z,3.53
2022-10-18T20:36:31.564Z,2.60
2022-10-18T20:38:59.248Z,1.70
2022-10-18T20:41:29.433Z,2.38
2022-10-18T20:44:02.292Z,0.70
2022-10-18T20:46:31.839Z,1.25
2022-10-18T20:49:02.684Z,2.88
2022-10-18T20:51:33.374Z,0.90
2022-10-18T20:56:34.369Z,1.13
2022-10-18T20:59:01.838Z,2.30
2022-10-18T21:01:34.787Z,1.17
2022-10-18T21:04:04.985Z,1.95
2022-10-18T21:06:34.861Z,1.33
2022-10-18T21:09:05.859Z,1.77
2022-10-18T21:11:38.138Z,1.50
2022-10-18T21:14:12.434Z,0.82
2022-10-18T21:16:41.064Z,2.50
2022-10-18T21:19:12.211Z,1.77
2022-10-18T21:21:41.126Z,2.22
2022-10-18T21:24:08.543Z,2.60
2022-10-18T21:26:36.116Z,1.05
2022-10-18T21:29:04.718Z,2.70
2022-10-18T21:31:37.266Z,0.73
2022-10-18T21:34:15.544Z,2.55
2022-10-18T21:36:44.828Z,1.58
2022-10-18T21:39:15.370Z,1.27
2022-10-18T21:41:42.960Z,2.45
2022-10-18T21:44:11.047Z,1.30
2022-10-18T21:46:39.212Z,1.83
2022-10-18T21:49:07.546Z,2.15
2022-10-18T21:51:35.184Z,0.80
2022-10-18T21:54:02.492Z,2.45
2022-10-18T21:56:34.764Z,2.42
2022-10-18T21:59:02.548Z,1.23
2022-10-18T22:01:38.373Z,1.38
2022-10-18T22:04:08.389Z,1.85
2022-10-18T22:06:39.758Z,1.17
2022-10-18T22:09:08.065Z,1.42
2022-10-18T22:11:43.218Z,1.17
2022-10-18T22:14:10.806Z,1.77
2022-10-18T22:16:38.802Z,1.05
2022-10-18T22:19:07.243Z,1.35
2022-10-18T22:21:34.754Z,2.10
2022-10-18T22:24:06.965Z,1.48
2022-10-18T22:26:37.184Z,1.38
2022-10-18T22:29:13.354Z,2.85
2022-10-18T22:35:25.190Z,0.52
2022-10-18T22:37:54.126Z,2.22
2022-10-18T22:40:21.451Z,3.00
2022-10-18T22:42:48.836Z,1.02
2022-10-18T22:45:16.328Z,2.03
2022-10-18T22:47:44.088Z,2.20
2022-10-18T22:50:17.901Z,2.10
2022-10-18T22:52:51.515Z,0.93
2022-10-18T22:55:21.804Z,1.55
2022-10-18T22:57:55.784Z,2.72
2022-10-18T23:00:26.145Z,2.17
2022-10-18T23:02:59.903Z,0.45
2022-10-18T23:05:27.301Z,1.80
2022-10-18T23:07:54.708Z,0.80
2022-10-18T23:10:22.205Z,1.23
2022-10-18T23:12:49.752Z,0.85
2022-10-18T23:15:17.080Z,1.02
2022-10-18T23:17:44.574Z,0.63
2022-10-18T23:20:17.703Z,0.50
2022-10-18T23:22:45.496Z,2.75
2022-10-18T23:25:13.107Z,2.53
2022-10-18T23:27:40.740Z,0.63
2022-10-18T23:30:09.005Z,2.78
2022-10-18T23:32:41.218Z,1.15
2022-10-18T23:35:08.939Z,2.55
2022-10-18T23:37:36.813Z,1.38
2022-10-18T23:40:08.117Z,1.42
2022-10-18T23:42:35.514Z,3.00
2022-10-18T23:45:02.936Z,0.77
2022-10-18T23:47:30.633Z,1.35
2022-10-18T23:49:59.157Z,2.85
2022-10-18T23:52:26.510Z,1.17
2022-10-18T23:54:54.225Z,2.00
2022-10-18T23:57:21.677Z,0.90
2022-10-18T23:59:49.137Z,1.85
